Time;durP1;ratioP1;P1;durP2;ratioP2;P2;SDS_P1;SDS_P2;PMS_P1;PMS_P2;Temp;Humidity;BMP_temperature;BMP_pressure;BME280_temperature;BME280_humidity;BME280_pressure;Samples;Min_cycle;Max_cycle;Signal;HPM_P1;HPM_P2
2022/11/17 00:02:02;;;;;;;1.50;1.50;;;11.40;99.90;12.00;98210.00;;;;5121725;27;20220;-72
2022/11/17 00:04:31;;;;;;;4.60;2.13;;;11.50;99.90;12.00;98196.00;;;;5119154;27;20207;-72
2022/11/17 00:06:58;;;;;;;1.80;1.80;;;11.50;99.90;12.00;98210.00;;;;5118702;27;20182;-72
2022/11/17 00:09:25;;;;;;;3.73;3.40;;;11.50;99.90;11.90;98217.00;;;;5117365;27;20189;-72
2022/11/17 00:14:38;;;;;;;1.67;1.67;;;11.50;99.90;12.20;98215.00;;;;5120586;27;20649;-73
2022/11/17 00:17:10;;;;;;;1.80;1.80;;;11.70;99.90;12.10;98201.00;;;;5103431;28;20208;-73
2022/11/17 00:22:21;;;;;;;1.50;1.50;;;11.80;99.90;12.20;98198.00;;;;5120888;27;20237;-74
2022/11/17 00:24:48;;;;;;;2.80;1.80;;;11.80;99.90;12.30;98193.00;;;;5132842;27;20181;-75
2022/11/17 00:27:14;;;;;;;1.70;1.70;;;11.90;99.90;12.30;98187.00;;;;5112145;27;20186;-74
2022/11/17 00:29:40;;;;;;;1.70;1.70;;;11.90;99.90;12.50;98196.00;;;;5117823;27;20290;-74
2022/11/17 00:35:00;;;;;;;2.53;1.90;;;12.00;99.90;12.30;98189.00;;;;5122433;27;20663;-75
2022/11/17 00:37:29;;;;;;;2.10;2.00;;;12.10;99.90;12.20;98193.00;;;;5105506;27;20176;-75
2022/11/17 00:39:55;;;;;;;1.57;1.57;;;12.10;99.90;12.30;98201.00;;;;5098711;27;20216;-75
2022/11/17 00:42:21;;;;;;;1.80;1.80;;;12.10;99.90;12.40;98193.00;;;;5124655;27;20659;-75
2022/11/17 00:44:46;;;;;;;2.10;2.10;;;12.20;99.90;12.30;98180.00;;;;5126412;27;20177;-75
2022/11/17 00:47:12;;;;;;;2.10;2.10;;;12.20;99.90;12.30;98187.00;;;;5123019;27;20500;-75
2022/11/17 00:49:38;;;;;;;1.73;1.73;;;12.20;99.90;12.30;98179.00;;;;5132864;27;20182;-75
2022/11/17 00:52:04;;;;;;;2.17;2.17;;;12.20;99.90;12.40;98169.00;;;;5129674;27;20194;-75
2022/11/17 00:54:30;;;;;;;6.57;3.87;;;12.20;99.90;12.40;98170.00;;;;5127398;27;20194;-75
2022/11/17 00:56:56;;;;;;;2.00;2.00;;;12.20;99.90;12.50;98164.00;;;;5113429;27;20695;-75
2022/11/17 00:59:22;;;;;;;2.70;2.60;;;12.30;99.90;12.50;98153.00;;;;5109021;28;20228;-75
2022/11/17 01:01:48;;;;;;;2.03;2.03;;;12.30;99.90;12.40;98162.00;;;;5114165;28;20197;-75
2022/11/17 01:04:15;;;;;;;2.10;2.10;;;12.30;99.90;12.60;98153.00;;;;5081162;28;20629;-75
2022/11/17 01:06:47;;;;;;;2.53;2.43;;;12.30;99.90;12.50;98139.00;;;;5092002;27;20634;-75
2022/11/17 01:09:18;;;;;;;2.20;2.20;;;12.30;99.90;12.70;98157.00;;;;5099476;27;20654;-75
2022/11/17 01:11:46;;;;;;;2.30;2.30;;;12.30;99.90;12.60;98135.00;;;;5116405;27;20658;-75
2022/11/17 01:14:16;;;;;;;2.23;2.23;;;12.30;99.90;12.30;98102.00;;;;5108221;28;20198;-75
2022/11/17 01:16:43;;;;;;;2.23;2.23;;;12.20;99.90;12.50;98146.00;;;;5099071;27;20187;-74
2022/11/17 01:19:12;;;;;;;2.70;2.50;;;12.20;99.90;12.30;98136.00;;;;5088698;28;20187;-74
2022/11/17 01:21:38;;;;;;;2.30;2.30;;;12.20;99.90;12.40;98071.00;;;;5105843;27;20206;-74
2022/11/17 01:24:04;;;;;;;4.13;3.83;;;12.20;99.90;12.70;98115.00;;;;5117925;27;20572;-74
2022/11/17 01:26:36;;;;;;;4.60;3.57;;;12.30;99.90;12.50;98117.00;;;;5111909;28;20190;-74
2022/11/17 01:29:04;;;;;;;3.53;3.33;;;12.30;99.90;12.20;98120.00;;;;5093254;27;20673;-75
2022/11/17 01:31:34;;;;;;;7.83;3.90;;;12.20;99.90;12.40;98109.00;;;;5113348;28;20245;-74
2022/11/17 01:34:00;;;;;;;7.23;2.80;;;12.20;99.90;12.40;98104.00;;;;5087181;27;20225;-74
2022/11/17 01:39:18;;;;;;;2.53;2.43;;;12.30;99.90;12.60;98090.00;;;;5104554;27;20253;-74
2022/11/17 01:41:44;;;;;;;2.67;2.50;;;12.30;99.90;12.60;98048.00;;;;5096526;28;20550;-75
2022/11/17 01:44:35;;;;;;;3.70;2.50;;;12.30;99.90;12.40;98055.00;;;;5108051;27;20192;-75
2022/11/17 01:47:03;;;;;;;1.83;1.83;;;12.20;99.90;12.50;98080.00;;;;5130969;27;20183;-75
2022/11/17 01:49:30;;;;;;;2.30;2.20;;;12.20;99.90;12.50;98081.00;;;;5091392;27;20277;-75
2022/11/17 01:52:05;;;;;;;2.60;2.40;;;12.20;99.90;12.40;98076.00;;;;5118621;27;20608;-75
2022/11/17 01:54:34;;;;;;;2.00;2.00;;;12.20;99.90;12.30;98071.00;;;;5107561;27;20540;-75
2022/11/17 01:57:08;;;;;;;1.87;1.87;;;12.20;99.90;12.40;98060.00;;;;5084326;27;20180;-75
2022/11/17 01:59:42;;;;;;;1.77;1.77;;;12.20;99.90;12.40;98049.00;;;;5107009;28;20185;-75
2022/11/17 02:02:09;;;;;;;2.20;2.10;;;12.20;99.90;12.20;98056.00;;;;5095978;28;20187;-75
2022/11/17 02:04:54;;;;;;;2.20;2.10;;;12.10;99.90;12.40;98003.00;;;;5092484;28;20341;-75
2022/11/17 02:07:31;;;;;;;1.90;1.90;;;12.20;99.90;12.40;98008.00;;;;5120518;27;20191;-76
2022/11/17 02:09:59;;;;;;;1.90;1.90;;;12.20;99.90;12.50;98046.00;;;;5101570;28;20647;-75
2022/11/17 02:12:27;;;;;;;2.40;2.20;;;12.10;99.90;12.50;98043.00;;;;5105472;27;20313;-75
2022/11/17 02:14:54;;;;;;;3.83;3.23;;;12.20;99.90;12.50;98031.00;;;;5110856;28;20179;-75
2022/11/17 02:17:22;;;;;;;2.00;2.00;;;12.20;99.90;12.50;98029.00;;;;5124237;27;20247;-75
2022/11/17 02:20:13;;;;;;;2.40;2.30;;;12.10;99.90;12.70;98004.00;;;;5093160;28;20233;-75
2022/11/17 02:22:51;;;;;;;2.33;2.20;;;12.20;99.90;12.60;98030.00;;;;5109485;28;20176;-74
2022/11/17 02:25:29;;;;;;;2.40;2.30;;;12.20;99.90;12.40;98026.00;;;;5128604;27;20184;-74
2022/11/17 02:28:29;;;;;;;2.40;2.10;;;12.20;99.90;12.50;98025.00;;;;5114170;27;20185;-74
2022/11/17 02:31:28;;;;;;;2.63;2.53;;;12.20;99.90;12.50;98028.00;;;;5104457;28;20187;-73
2022/11/17 02:34:15;;;;;;;2.00;2.00;;;12.20;99.90;12.60;98022.00;;;;5107541;28;20175;-73
2022/11/17 02:37:26;;;;;;;2.80;2.70;;;12.20;99.90;12.50;98027.00;;;;5101502;28;20263;-75
2022/11/17 02:40:06;;;;;;;2.83;2.73;;;12.10;99.90;12.30;98015.00;;;;5087359;28;20202;-74
2022/11/17 02:45:38;;;;;;;4.53;2.33;;;11.90;99.90;12.30;98001.00;;;;5103245;28;20684;-74
2022/11/17 02:48:14;;;;;;;3.17;2.30;;;11.90;99.90;12.10;97988.00;;;;5097239;28;20180;-74
2022/11/17 02:50:43;;;;;;;2.37;2.27;;;11.90;99.90;12.20;97997.00;;;;5095374;28;20215;-76
2022/11/17 02:53:09;;;;;;;5.70;2.30;;;11.90;99.90;12.10;97991.00;;;;5100613;28;20237;-75
2022/11/17 02:55:36;;;;;;;2.30;2.20;;;11.80;99.90;12.30;97989.00;;;;5113273;28;20192;-76
2022/11/17 02:58:02;;;;;;;2.53;2.43;;;11.80;99.90;12.00;97997.00;;;;5094900;28;20185;-76
2022/11/17 03:00:32;;;;;;;2.00;2.00;;;11.80;99.90;12.20;97989.00;;;;5118078;28;20196;-75
2022/11/17 03:03:17;;;;;;;2.30;2.20;;;11.80;99.90;12.00;97950.00;;;;5115401;28;20275;-76
2022/11/17 03:06:05;;;;;;;1.80;1.80;;;11.80;99.90;12.00;97990.00;;;;5117179;28;20190;-75
2022/11/17 03:08:47;;;;;;;3.73;2.47;;;11.70;99.90;12.10;97992.00;;;;5120917;28;20196;-75
2022/11/17 03:11:13;;;;;;;1.70;1.70;;;11.70;99.90;12.20;97985.00;;;;5113639;28;20195;-76
2022/11/17 03:14:14;;;;;;;1.80;1.80;;;11.70;99.90;12.10;97977.00;;;;5084657;28;20521;-76
2022/11/17 03:16:45;;;;;;;2.20;2.10;;;11.70;99.90;12.00;97984.00;;;;5093288;28;20215;-74
2022/11/17 03:19:34;;;;;;;1.50;1.50;;;11.70;99.90;12.30;97981.00;;;;5134807;27;20189;-75
2022/11/17 03:22:11;;;;;;;1.60;1.60;;;11.70;99.90;12.10;97979.00;;;;5104825;27;20181;-75
2022/11/17 03:24:55;;;;;;;2.17;2.07;;;11.70;99.90;12.20;97978.00;;;;5102958;28;20666;-75
2022/11/17 03:27:25;;;;;;;2.10;2.00;;;11.70;99.90;11.90;97983.00;;;;5111549;27;20185;-75
2022/11/17 03:29:58;;;;;;;1.40;1.40;;;11.70;99.90;11.90;97985.00;;;;5105794;27;20264;-73
2022/11/17 03:32:36;;;;;;;2.13;2.03;;;11.70;99.90;12.00;97953.00;;;;5111786;27;20220;-72
2022/11/17 03:35:20;;;;;;;1.50;1.50;;;11.60;99.90;11.90;97987.00;;;;5114604;27;20181;-73
2022/11/17 03:38:12;;;;;;;1.33;1.33;;;11.60;99.90;11.90;97967.00;;;;5101608;27;20216;-72
2022/11/17 03:41:03;;;;;;;1.20;1.20;;;11.60;99.90;11.90;97986.00;;;;5108757;27;20176;-72
2022/11/17 03:43:33;;;;;;;1.10;1.10;;;11.60;99.90;11.90;98001.00;;;;5104831;27;20217;-72
2022/11/17 03:46:08;;;;;;;4.10;1.67;;;11.70;99.90;12.10;97994.00;;;;5098747;28;20185;-72
2022/11/17 03:48:49;;;;;;;1.20;1.20;;;11.70;99.90;12.20;98000.00;;;;5111235;27;20212;-73
2022/11/17 03:51:35;;;;;;;1.30;1.30;;;11.70;99.90;11.90;97995.00;;;;5098147;28;20207;-75
2022/11/17 03:54:01;;;;;;;1.10;1.10;;;11.70;99.90;12.00;97986.00;;;;5099418;28;20546;-75
2022/11/17 03:56:40;;;;;;;1.20;1.20;;;11.70;99.90;12.10;97995.00;;;;5083417;28;20184;-75
2022/11/17 03:59:42;;;;;;;1.40;1.40;;;11.80;99.90;12.10;97963.00;;;;5108261;28;20219;-74
2022/11/17 04:02:31;;;;;;;1.47;1.37;;;11.70;99.90;12.00;97988.00;;;;5092762;27;20180;-74
2022/11/17 04:05:20;;;;;;;1.30;1.30;;;11.70;99.90;12.10;97996.00;;;;5087371;27;20204;-75
2022/11/17 04:08:06;;;;;;;1.73;1.67;;;11.70;99.90;12.10;97988.00;;;;5098886;27;20188;-76
2022/11/17 04:17:21;;;;;;;1.40;1.40;;;11.70;99.90;12.30;98000.00;;;;5112398;28;20528;-74
2022/11/17 04:20:11;;;;;;;1.50;1.50;;;11.80;99.90;12.00;97999.00;;;;5104806;27;20200;-74
2022/11/17 04:23:16;;;;;;;4.00;2.00;;;11.70;99.90;12.00;97993.00;;;;5116465;27;20189;-74
2022/11/17 04:28:56;;;;;;;1.90;1.90;;;11.70;99.90;12.10;97962.00;;;;5117755;27;20716;-74
2022/11/17 04:31:28;;;;;;;1.90;1.90;;;11.70;99.90;12.00;97970.00;;;;5106620;28;20184;-74
2022/11/17 04:34:09;;;;;;;1.80;1.80;;;11.70;99.90;11.90;97923.00;;;;5111023;28;20188;-74
2022/11/17 04:37:21;;;;;;;1.50;1.50;;;11.70;99.90;11.90;97969.00;;;;5113865;27;20599;-75
2022/11/17 04:44:01;;;;;;;1.40;1.40;;;11.70;99.90;11.90;97977.00;;;;5116933;27;20237;-75
2022/11/17 04:47:10;;;;;;;1.60;1.60;;;11.70;99.90;11.90;97969.00;;;;5097172;28;20641;-75
2022/11/17 04:50:17;;;;;;;1.77;1.77;;;11.70;99.90;11.90;97968.00;;;;5112462;27;20293;-74
2022/11/17 04:53:38;;;;;;;1.30;1.30;;;11.60;99.90;11.70;97930.00;;;;5105613;27;20215;-75
2022/11/17 04:56:25;;;;;;;1.40;1.40;;;11.60;99.90;11.50;97986.00;;;;5093138;28;20640;-75
2022/11/17 04:59:39;;;;;;;1.40;1.40;;;11.50;99.90;11.60;97982.00;;;;5087789;27;20309;-75
2022/11/17 05:02:50;;;;;;;5.40;2.80;;;11.40;99.90;11.50;97980.00;;;;5093977;27;20203;-75
2022/11/17 05:05:59;;;;;;;3.13;1.60;;;11.40;99.90;11.30;97980.00;;;;5107713;27;20195;-75
2022/11/17 05:08:59;;;;;;;1.40;1.40;;;11.30;99.90;11.40;97978.00;;;;5088772;28;20192;-75
2022/11/17 05:17:03;;;;;;;1.30;1.20;;;11.30;99.90;11.30;97998.00;;;;5119027;27;20199;-74
2022/11/17 05:18:46;;;;;;;2.73;1.60;;;11.20;99.90;11.30;97963.00;;;;5119085;27;20183;-73
2022/11/17 05:21:40;;;;;;;1.63;1.63;;;11.10;99.90;11.20;97985.00;;;;5124254;27;20662;-73
2022/11/17 05:24:52;;;;;;;1.70;1.60;;;11.10;99.90;11.20;98008.00;;;;5120087;27;20200;-73
2022/11/17 05:28:06;;;;;;;1.20;1.20;;;11.00;99.90;11.20;97994.00;;;;5086763;27;20541;-73
2022/11/17 05:31:31;;;;;;;1.47;1.47;;;11.00;99.90;11.00;98006.00;;;;5110400;27;20190;-73
2022/11/17 05:34:37;;;;;;;1.40;1.40;;;10.90;99.90;11.10;98002.00;;;;5087366;27;20210;-74
2022/11/17 05:37:57;;;;;;;1.40;1.40;;;11.00;99.90;11.00;98017.00;;;;5077404;28;20228;-74
2022/11/17 05:43:53;;;;;;;1.83;1.73;;;10.80;99.90;10.80;98025.00;;;;5122972;27;20222;-73
2022/11/17 05:47:02;;;;;;;1.40;1.40;;;10.80;99.90;10.90;98023.00;;;;5093060;28;20188;-73
2022/11/17 05:50:26;;;;;;;1.50;1.50;;;10.70;99.90;10.80;98026.00;;;;5104985;27;20180;-74
2022/11/17 05:53:29;;;;;;;1.50;1.50;;;10.70;99.90;10.70;98031.00;;;;5112735;27;20203;-74
2022/11/17 05:56:51;;;;;;;1.30;1.30;;;10.50;99.90;10.60;98052.00;;;;5089152;27;20220;-75
2022/11/17 05:59:40;;;;;;;1.50;1.50;;;10.50;99.90;10.70;98053.00;;;;5091329;27;20653;-74
2022/11/17 06:02:43;;;;;;;1.17;1.17;;;10.50;99.90;10.40;98051.00;;;;5119670;27;20183;-74
2022/11/17 06:05:36;;;;;;;1.50;1.50;;;10.40;99.90;10.60;98060.00;;;;5114001;27;20628;-75
2022/11/17 06:08:46;;;;;;;8.43;1.50;;;10.40;99.90;10.60;98058.00;;;;5102585;27;20183;-75
2022/11/17 06:11:54;;;;;;;1.57;1.47;;;10.40;99.90;10.50;98071.00;;;;5094715;27;20193;-76
2022/11/17 06:15:01;;;;;;;3.83;2.10;;;10.40;99.90;10.50;98069.00;;;;5093826;27;20643;-76
2022/11/17 06:18:08;;;;;;;1.00;1.00;;;10.40;99.90;10.60;98064.00;;;;5109017;27;20530;-76
2022/11/17 06:21:02;;;;;;;1.03;1.03;;;10.30;99.90;10.30;98065.00;;;;5089745;28;20190;-75
2022/11/17 06:24:09;;;;;;;1.00;1.00;;;10.30;99.90;10.40;98071.00;;;;5096202;28;20267;-76
2022/11/17 06:26:45;;;;;;;2.40;1.30;;;10.30;99.90;10.70;98039.00;;;;5110157;27;20236;-76
2022/11/17 06:29:36;;;;;;;2.10;1.93;;;10.40;99.90;10.70;98076.00;;;;5096724;27;20182;-76
2022/11/17 06:32:42;;;;;;;1.30;1.20;;;10.40;99.90;10.50;98083.00;;;;5090953;28;20216;-75
2022/11/17 06:35:47;;;;;;;1.30;1.30;;;10.40;99.90;10.60;98093.00;;;;5083582;28;20180;-75
2022/11/17 06:38:56;;;;;;;1.10;1.10;;;10.40;99.90;10.80;98085.00;;;;5088761;28;20193;-75
2022/11/17 06:41:40;;;;;;;1.60;1.60;;;10.50;99.90;10.90;98092.00;;;;5098267;28;20216;-76
2022/11/17 06:44:49;;;;;;;1.50;1.50;;;10.60;99.90;10.70;98087.00;;;;5115314;28;20195;-75
2022/11/17 06:48:01;;;;;;;1.40;1.40;;;10.50;99.90;10.80;98079.00;;;;5091196;28;20534;-75
2022/11/17 06:50:36;;;;;;;1.70;1.70;;;10.50;99.90;10.90;98086.00;;;;5084389;28;20194;-75
2022/11/17 06:53:37;;;;;;;1.80;1.80;;;10.60;99.90;11.00;98072.00;;;;5107953;28;20293;-77
2022/11/17 06:56:30;;;;;;;1.87;1.77;;;10.70;99.90;10.70;98088.00;;;;5112681;27;20206;-75
2022/11/17 06:59:23;;;;;;;3.13;1.87;;;10.60;99.90;11.00;98097.00;;;;5094709;27;20237;-76
2022/11/17 07:02:07;;;;;;;2.33;2.23;;;10.70;99.90;10.80;98095.00;;;;5118151;27;20610;-76
2022/11/17 07:05:08;;;;;;;2.27;2.07;;;10.70;99.90;10.90;98099.00;;;;5114955;27;20210;-76
2022/11/17 07:08:27;;;;;;;5.13;2.20;;;10.80;99.90;10.80;98098.00;;;;5092815;28;20659;-76
2022/11/17 07:11:18;;;;;;;2.10;2.00;;;10.70;99.90;10.80;98114.00;;;;5103630;27;20172;-76
2022/11/17 07:14:31;;;;;;;1.90;1.80;;;10.70;99.90;10.80;98093.00;;;;5101079;27;20291;-76
2022/11/17 07:17:31;;;;;;;1.77;1.73;;;10.60;99.90;11.00;98112.00;;;;5093507;27;20657;-75
2022/11/17 07:23:49;;;;;;;2.40;2.40;;;10.70;99.90;11.60;98126.00;;;;5116561;27;20199;-75
2022/11/17 07:26:45;;;;;;;2.00;1.90;;;10.90;99.90;10.80;98119.00;;;;5100356;28;20696;-74
2022/11/17 07:29:57;;;;;;;2.10;2.10;;;10.70;99.90;10.80;98141.00;;;;5114151;27;20258;-75
2022/11/17 07:33:16;;;;;;;2.53;2.47;;;10.60;99.90;10.80;98154.00;;;;5109729;27;20213;-74
2022/11/17 07:36:26;;;;;;;2.20;2.20;;;10.60;99.90;11.20;98149.00;;;;5085999;28;20601;-76
2022/11/17 07:39:23;;;;;;;2.87;2.77;;;10.60;99.90;11.00;98157.00;;;;5104725;27;20266;-74
2022/11/17 07:42:44;;;;;;;2.10;2.10;;;10.60;99.90;11.20;98163.00;;;;5105104;27;20626;-74
2022/11/17 07:45:58;;;;;;;4.50;4.30;;;10.60;99.90;10.30;98162.00;;;;5089007;28;20219;-74
2022/11/17 07:49:22;;;;;;;2.10;2.10;;;10.50;99.90;10.50;98120.00;;;;5093277;27;20205;-75
2022/11/17 07:52:43;;;;;;;1.83;1.83;;;10.50;99.90;10.70;98165.00;;;;5106158;28;20605;-76
2022/11/17 07:55:50;;;;;;;4.50;2.23;;;10.40;99.90;10.50;98173.00;;;;5092415;27;20271;-76
2022/11/17 07:59:20;;;;;;;3.97;2.13;;;10.40;99.90;10.40;98179.00;;;;5097041;27;20642;-77
2022/11/17 08:02:12;;;;;;;2.70;2.20;;;10.40;99.90;10.70;98165.00;;;;5107534;27;20191;-76
2022/11/17 08:05:06;;;;;;;1.60;1.60;;;10.40;99.90;10.80;98198.00;;;;5085853;27;20274;-77
2022/11/17 08:07:58;;;;;;;2.30;2.20;;;10.40;99.90;10.50;98200.00;;;;5080541;28;20191;-77
2022/11/17 08:10:30;;;;;;;1.60;1.60;;;10.50;99.90;10.70;98208.00;;;;5092088;27;20203;-78
2022/11/17 08:13:01;;;;;;;1.90;1.90;;;10.40;99.90;10.60;98204.00;;;;5108293;27;20216;-77
2022/11/17 08:15:28;;;;;;;2.80;1.83;;;10.40;99.90;10.50;98204.00;;;;5108326;28;20555;-76
2022/11/17 08:18:06;;;;;;;1.90;1.80;;;10.40;99.90;10.50;98198.00;;;;5110923;27;20273;-77
2022/11/17 08:20:32;;;;;;;2.10;2.00;;;10.40;99.90;10.80;98217.00;;;;5117312;27;20178;-77
2022/11/17 08:22:58;;;;;;;2.40;2.30;;;10.50;99.90;10.50;98210.00;;;;5103326;28;20204;-78
2022/11/17 08:25:28;;;;;;;1.70;1.70;;;10.50;99.90;10.80;98224.00;;;;5117170;27;20181;-78
2022/11/17 08:27:56;;;;;;;4.30;2.53;;;10.50;99.90;10.60;98223.00;;;;5116870;27;20266;-77
2022/11/17 08:30:23;;;;;;;1.80;1.70;;;10.50;99.90;10.70;98225.00;;;;5102544;28;20263;-77
2022/11/17 08:32:52;;;;;;;1.90;1.90;;;10.50;99.90;10.80;98222.00;;;;5092779;28;20223;-76
2022/11/17 08:35:21;;;;;;;1.77;1.77;;;10.60;99.90;10.80;98230.00;;;;5100451;27;20191;-77
2022/11/17 08:37:47;;;;;;;1.90;1.90;;;10.60;99.90;10.90;98217.00;;;;5099787;27;20659;-77
2022/11/17 08:40:14;;;;;;;2.60;2.50;;;10.70;99.90;11.00;98210.00;;;;5123174;27;20186;-76
2022/11/17 08:42:40;;;;;;;3.33;2.40;;;10.70;99.90;10.90;98228.00;;;;5093486;28;20193;-76
2022/11/17 08:48:33;;;;;;;2.03;2.03;;;10.70;99.90;11.10;98244.00;;;;5083225;28;20200;-76
2022/11/17 08:51:08;;;;;;;2.10;2.00;;;10.80;99.90;10.80;98233.00;;;;5108582;27;20183;-76
2022/11/17 08:54:22;;;;;;;1.80;1.80;;;10.80;99.90;11.20;98252.00;;;;5101670;28;20736;-70
2022/11/17 08:57:05;;;;;;;2.37;2.37;;;10.80;99.90;11.30;98245.00;;;;5120665;27;20176;-68
2022/11/17 08:59:52;;;;;;;3.13;2.13;;;10.90;99.90;11.10;98227.00;;;;5128782;27;20190;-76
2022/11/17 09:03:24;;;;;;;2.27;2.17;;;10.90;99.90;11.00;98250.00;;;;5096918;28;20192;-76
2022/11/17 09:06:25;;;;;;;2.10;2.10;;;10.90;99.90;11.30;98226.00;;;;5115936;27;20179;-76
2022/11/17 09:09:07;;;;;;;2.00;2.00;;;11.00;99.90;11.60;98232.00;;;;5103333;27;20245;-77
2022/11/17 09:11:35;;;;;;;1.90;1.90;;;11.20;99.90;11.40;98248.00;;;;5106660;27;20180;-79
2022/11/17 09:14:01;;;;;;;2.00;2.00;;;11.20;99.90;11.30;98260.00;;;;5101469;27;20187;-78
2022/11/17 09:16:27;;;;;;;1.90;1.90;;;11.10;99.90;11.20;98220.00;;;;5106529;27;20206;-78
2022/11/17 09:18:55;;;;;;;2.00;1.97;;;11.10;99.90;11.10;98258.00;;;;5109695;28;20195;-78
2022/11/17 09:21:42;;;;;;;1.87;1.87;;;11.00;99.90;10.90;98278.00;;;;5087313;28;20187;-78
2022/11/17 09:24:19;;;;;;;1.60;1.60;;;10.90;99.90;11.30;98273.00;;;;5099186;27;20187;-78
2022/11/17 09:27:41;;;;;;;2.00;1.90;;;11.00;99.90;11.40;98287.00;;;;5109815;27;20677;-78
2022/11/17 09:30:53;;;;;;;1.70;1.70;;;11.10;99.90;11.70;98287.00;;;;5116681;27;20203;-79
2022/11/17 09:33:37;;;;;;;1.67;1.53;;;11.20;99.90;11.20;98292.00;;;;5087966;28;20226;-78
2022/11/17 09:36:43;;;;;;;1.90;1.90;;;11.10;99.90;11.90;98304.00;;;;5107666;27;20176;-79
2022/11/17 09:39:35;;;;;;;1.63;1.63;;;11.30;99.90;11.30;98316.00;;;;5096242;28;20261;-78
2022/11/17 09:45:58;;;;;;;2.20;2.10;;;11.20;99.90;11.40;98312.00;;;;5101909;28;20522;-78
2022/11/17 09:48:40;;;;;;;1.40;1.40;;;11.30;99.90;11.30;98305.00;;;;5082604;27;20193;-79
2022/11/17 09:51:17;;;;;;;1.97;1.87;;;11.20;99.90;11.20;98329.00;;;;5098980;27;20183;-79
2022/11/17 09:53:56;;;;;;;1.60;1.50;;;11.10;99.90;11.30;98335.00;;;;5094301;28;20183;-79
2022/11/17 09:56:25;;;;;;;1.40;1.40;;;11.10;99.90;11.20;98351.00;;;;5094428;27;20536;-78
2022/11/17 09:59:15;;;;;;;1.40;1.40;;;11.00;99.90;11.60;98303.00;;;;5111965;28;20184;-73
2022/11/17 10:01:41;;;;;;;2.00;1.90;;;11.10;99.90;11.60;98351.00;;;;5108064;27;20190;-84
2022/11/17 10:04:15;;;;;;;1.20;1.20;;;11.20;99.90;11.00;98348.00;;;;5091035;28;20202;-85
2022/11/17 10:06:51;;;;;;;1.97;1.87;;;11.00;99.90;11.00;98360.00;;;;5098763;28;20638;-83
2022/11/17 10:09:35;;;;;;;1.20;1.20;;;11.00;99.90;11.20;98378.00;;;;5108939;28;20175;-84
2022/11/17 10:12:31;;;;;;;4.40;2.00;;;11.00;99.90;11.20;98340.00;;;;5110238;28;20264;-83
2022/11/17 10:15:33;;;;;;;1.07;1.07;;;11.00;99.90;11.20;98370.00;;;;5093508;28;20616;-84
2022/11/17 10:18:07;;;;;;;1.10;1.10;;;11.10;99.90;11.30;98333.00;;;;5078068;28;20190;-83
2022/11/17 10:20:39;;;;;;;1.30;1.30;;;11.10;99.90;11.20;98378.00;;;;5094214;28;20554;-81
2022/11/17 10:33:43;;;;;;;1.70;0.80;;;11.10;99.90;11.20;98392.00;;;;5172994;27;20544;-82
2022/11/17 10:36:31;;;;;;;1.03;1.03;;;11.20;99.90;11.50;98370.00;;;;5100344;27;20186;-81
2022/11/17 10:39:01;;;;;;;0.90;0.90;;;11.40;99.90;11.40;98351.00;;;;5115765;27;20259;-82
2022/11/17 10:41:38;;;;;;;1.10;1.10;;;11.40;99.90;11.80;98382.00;;;;5123776;27;20179;-82
2022/11/17 10:44:23;;;;;;;2.00;1.30;;;11.40;99.90;11.80;98385.00;;;;5145406;27;20679;-81
2022/11/17 10:47:02;;;;;;;0.90;0.90;;;11.60;99.90;11.60;98395.00;;;;5133144;27;20184;-77
2022/11/17 10:49:38;;;;;;;1.03;1.00;;;11.60;99.90;11.70;98365.00;;;;5115487;27;20190;-78
2022/11/17 10:52:18;;;;;;;0.97;0.97;;;11.50;99.90;11.50;98383.00;;;;5099610;28;20270;-78
2022/11/17 10:55:23;;;;;;;0.80;0.80;;;11.70;99.90;11.40;98411.00;;;;5115331;27;20188;-78
2022/11/17 10:58:24;;;;;;;1.10;1.00;;;11.50;99.90;11.70;98405.00;;;;5145875;27;20192;-78
2022/11/17 11:01:01;;;;;;;0.80;0.80;;;11.50;99.90;11.80;98393.00;;;;5133205;27;20188;-80
2022/11/17 11:03:55;;;;;;;1.53;1.20;;;11.60;99.90;11.70;98402.00;;;;5126592;27;20272;-80
2022/11/17 11:06:31;;;;;;;1.57;1.13;;;11.60;99.90;12.00;98415.00;;;;5130933;27;20587;-80
2022/11/17 11:09:15;;;;;;;0.93;0.93;;;11.70;99.90;11.60;98405.00;;;;5127190;27;20327;-80
2022/11/17 11:11:49;;;;;;;1.00;0.80;;;11.70;99.90;11.40;98354.00;;;;5121935;27;20255;-80
2022/11/17 11:14:29;;;;;;;2.60;0.97;;;11.60;99.90;11.50;98403.00;;;;5133240;27;20184;-78
2022/11/17 11:16:54;;;;;;;0.60;0.60;;;11.50;99.90;11.50;98356.00;;;;5132760;27;20195;-79
2022/11/17 11:19:21;;;;;;;0.80;0.80;;;11.50;99.90;11.80;98420.00;;;;5132472;27;20185;-79
2022/11/17 11:22:22;;;;;;;0.87;0.87;;;11.60;99.90;12.10;98422.00;;;;5151269;27;20193;-79
2022/11/17 11:25:11;;;;;;;1.20;0.90;;;11.70;99.90;12.30;98409.00;;;;5142214;27;20208;-79
2022/11/17 11:27:54;;;;;;;0.87;0.87;;;11.80;99.90;12.30;98428.00;;;;5143061;27;20233;-79
2022/11/17 11:30:20;;;;;;;0.60;0.60;;;11.90;99.90;11.80;98445.00;;;;5145031;27;20200;-79
2022/11/17 11:32:58;;;;;;;1.03;1.03;;;11.70;99.90;11.80;98446.00;;;;5150226;27;20240;-79
2022/11/17 11:35:38;;;;;;;3.60;0.70;;;11.70;99.90;11.70;98432.00;;;;5151029;27;20181;-79
2022/11/17 11:38:47;;;;;;;0.93;0.87;;;11.60;99.90;11.50;98442.00;;;;5151085;27;20234;-78
2022/11/17 11:41:47;;;;;;;0.90;0.90;;;11.60;99.90;11.60;98453.00;;;;5136360;27;20216;-82
2022/11/17 11:44:35;;;;;;;0.60;0.60;;;11.60;99.90;12.00;98448.00;;;;5113201;27;20184;-75
2022/11/17 11:47:50;;;;;;;0.60;0.60;;;11.70;99.90;12.00;98424.00;;;;5120706;27;20179;-85
2022/11/17 11:50:25;;;;;;;0.60;0.60;;;11.70;99.90;12.10;98444.00;;;;5118942;27;20201;-85
2022/11/17 11:53:24;;;;;;;0.50;0.50;;;11.90;99.90;11.80;98437.00;;;;5127350;27;20242;-86
2022/11/17 11:56:32;;;;;;;0.40;0.40;;;11.80;99.90;12.00;98453.00;;;;5133826;27;20274;-85
2022/11/17 11:59:28;;;;;;;2.67;0.77;;;11.90;99.90;12.50;98391.00;;;;5122667;27;20256;-86
2022/11/17 12:02:09;;;;;;;2.20;0.80;;;12.10;99.90;12.50;98417.00;;;;5114083;27;20197;-85
2022/11/17 12:05:12;;;;;;;0.63;0.60;;;12.20;99.90;12.40;98462.00;;;;5122674;27;20243;-70
2022/11/17 12:08:16;;;;;;;0.40;0.40;;;12.20;99.90;12.90;98468.00;;;;5133913;27;20666;-71
2022/11/17 12:10:56;;;;;;;0.73;0.73;;;12.40;99.90;12.70;98458.00;;;;5117554;27;20218;-70
2022/11/17 12:13:25;;;;;;;0.60;0.60;;;12.40;99.90;12.90;98460.00;;;;5118086;27;20187;-70
2022/11/17 12:16:21;;;;;;;0.40;0.40;;;12.60;99.90;12.70;98477.00;;;;5116812;27;20203;-70
2022/11/17 12:19:07;;;;;;;0.30;0.30;;;12.50;99.90;13.40;98431.00;;;;5117911;27;20265;-71
2022/11/17 12:21:33;;;;;;;0.40;0.40;;;12.80;99.90;13.10;98489.00;;;;5135524;27;20289;-71
2022/11/17 12:24:08;;;;;;;1.03;0.73;;;12.90;99.90;12.80;98498.00;;;;5117723;27;20180;-71
2022/11/17 12:26:35;;;;;;;0.60;0.40;;;12.70;99.90;13.40;98493.00;;;;5136252;27;20293;-71
2022/11/17 12:29:23;;;;;;;0.20;0.20;;;12.90;99.90;13.50;98480.00;;;;5097653;27;20179;-71
2022/11/17 12:32:00;;;;;;;0.40;0.33;;;13.10;99.90;13.70;98485.00;;;;5128149;27;20210;-71
2022/11/17 12:35:24;;;;;;;0.43;0.43;;;13.40;99.90;13.90;98504.00;;;;5134724;27;20195;-71
2022/11/17 12:38:15;;;;;;;0.20;0.20;;;13.70;99.90;13.60;98477.00;;;;5128506;27;20270;-71
2022/11/17 12:40:47;;;;;;;0.67;0.30;;;13.50;99.90;13.80;98471.00;;;;5096370;27;20193;-71
2022/11/17 12:43:23;;;;;;;0.50;0.50;;;13.50;99.90;13.50;98505.00;;;;5100647;27;20278;-71
2022/11/17 12:45:55;;;;;;;0.20;0.20;;;13.40;99.90;13.40;98525.00;;;;5135491;27;20646;-71
2022/11/17 12:48:36;;;;;;;0.50;0.50;;;13.30;99.90;13.10;98504.00;;;;5125868;27;20266;-71
2022/11/17 12:51:34;;;;;;;0.20;0.20;;;13.10;99.90;13.90;98480.00;;;;5116653;27;20192;-64
2022/11/17 12:54:28;;;;;;;0.83;0.47;;;13.30;99.90;13.20;98531.00;;;;5117004;27;20636;-71
2022/11/17 12:57:01;;;;;;;0.40;0.40;;;13.10;99.90;13.00;98535.00;;;;5127965;27;20222;-71
2022/11/17 13:00:04;;;;;;;0.20;0.20;;;13.10;99.90;14.00;98538.00;;;;5124049;27;20270;-71
2022/11/17 13:02:48;;;;;;;0.20;0.20;;;13.30;99.90;13.50;98498.00;;;;5125113;27;20267;-71
2022/11/17 13:05:23;;;;;;;0.27;0.27;;;13.30;99.90;13.90;98552.00;;;;5096116;28;20225;-71
2022/11/17 13:07:51;;;;;;;0.37;0.37;;;13.40;99.90;13.50;98539.00;;;;5106111;27;20251;-71
2022/11/17 13:10:29;;;;;;;0.20;0.20;;;13.30;99.90;13.00;98538.00;;;;5106268;27;20179;-71